createdAt,value
2023-05-08T00:00:08.946Z,14.09
2023-05-08T00:01:10.535Z,14.16
2023-05-08T00:02:12.132Z,14.27
2023-05-08T00:03:13.947Z,14.18
2023-05-08T00:04:15.939Z,14.13
2023-05-08T00:05:17.807Z,14.22
2023-05-08T00:06:19.601Z,14.09
2023-05-08T00:07:21.177Z,14.13
2023-05-08T00:08:23.069Z,14.12
2023-05-08T00:09:24.604Z,14.18
2023-05-08T00:10:26.211Z,14.14
2023-05-08T00:11:27.788Z,14.12
2023-05-08T00:12:29.394Z,13.98
2023-05-08T00:13:31.070Z,13.92
2023-05-08T00:14:32.712Z,14.04
2023-05-08T00:15:36.271Z,14.10
2023-05-08T00:16:37.866Z,14.02
2023-05-08T00:17:39.502Z,13.91
2023-05-08T00:18:41.132Z,14.08
2023-05-08T00:19:42.692Z,14.17
2023-05-08T00:20:44.301Z,13.99
2023-05-08T00:21:45.872Z,14.09
2023-05-08T00:22:47.432Z,14.05
2023-05-08T00:23:49.005Z,14.10
2023-05-08T00:24:50.599Z,14.04
2023-05-08T00:25:52.156Z,14.10
2023-05-08T00:26:53.725Z,14.11
2023-05-08T00:27:55.676Z,14.09
2023-05-08T00:28:58.076Z,14.01
2023-05-08T00:29:59.586Z,14.14
2023-05-08T00:31:02.185Z,14.15
2023-05-08T00:32:03.822Z,14.19
2023-05-08T00:33:05.503Z,14.29
2023-05-08T00:34:07.125Z,14.15
2023-05-08T00:35:08.921Z,14.17
2023-05-08T00:36:10.501Z,14.06
2023-05-08T00:37:12.102Z,14.09
2023-05-08T00:38:13.836Z,14.12
2023-05-08T00:39:15.649Z,14.13
2023-05-08T00:40:17.253Z,14.15
2023-05-08T00:41:18.827Z,14.24
2023-05-08T00:42:20.391Z,14.18
2023-05-08T00:43:25.758Z,14.37
2023-05-08T00:44:27.415Z,14.19
2023-05-08T00:45:34.901Z,14.09
2023-05-08T00:46:37.173Z,14.02
2023-05-08T00:47:38.990Z,13.94
2023-05-08T00:48:40.852Z,13.94
2023-05-08T00:49:42.870Z,14.09
2023-05-08T00:50:44.572Z,14.06
2023-05-08T00:51:47.910Z,14.23
2023-05-08T00:52:50.236Z,14.31
2023-05-08T00:53:51.897Z,14.32
2023-05-08T00:54:54.048Z,14.35
2023-05-08T00:55:55.777Z,14.38
2023-05-08T00:56:57.570Z,14.24
2023-05-08T00:57:59.561Z,14.20
2023-05-08T00:59:01.552Z,14.11
2023-05-08T01:00:04.721Z,14.17
2023-05-08T01:01:06.598Z,14.16
2023-05-08T01:02:33.882Z,14.19
2023-05-08T01:03:36.457Z,14.09
2023-05-08T01:04:38.505Z,14.23
2023-05-08T01:05:41.399Z,14.17
2023-05-08T01:06:43.272Z,14.07
2023-05-08T01:07:48.507Z,14.01
2023-05-08T01:08:51.583Z,14.04
2023-05-08T01:09:53.693Z,13.99
2023-05-08T01:11:02.089Z,13.89
2023-05-08T01:12:21.604Z,13.92
2023-05-08T01:13:32.456Z,13.92
2023-05-08T01:15:06.594Z,13.95
2023-05-08T01:16:11.755Z,13.99
2023-05-08T01:17:42.965Z,13.83
2023-05-08T01:18:51.112Z,14.07
2023-05-08T01:20:10.369Z,14.10
2023-05-08T01:21:50.660Z,14.04
2023-05-08T01:23:07.652Z,14.08
2023-05-08T01:24:39.159Z,14.04
2023-05-08T01:26:20.557Z,14.00
2023-05-08T01:27:47.277Z,14.03
2023-05-08T01:29:31.118Z,14.00
2023-05-08T01:31:10.770Z,14.09
2023-05-08T01:32:18.550Z,14.00
2023-05-08T01:33:26.680Z,13.97
2023-05-08T01:34:32.040Z,14.05
2023-05-08T01:35:50.079Z,13.95
2023-05-08T01:36:55.108Z,13.88
2023-05-08T01:38:10.271Z,13.82
2023-05-08T01:39:24.526Z,13.83
2023-05-08T01:41:07.738Z,13.78
2023-05-08T01:42:33.478Z,13.93
2023-05-08T01:44:11.134Z,13.80
2023-05-08T01:45:29.753Z,13.80
2023-05-08T01:46:33.449Z,13.77
2023-05-08T01:47:38.367Z,13.74
2023-05-08T01:48:51.518Z,13.71
2023-05-08T01:50:07.879Z,13.84
2023-05-08T01:51:18.790Z,13.79
2023-05-08T01:52:30.581Z,13.69
2023-05-08T01:53:38.576Z,13.67
2023-05-08T01:54:44.975Z,13.68
2023-05-08T01:55:48.468Z,13.58
2023-05-08T01:56:54.202Z,13.59
2023-05-08T01:57:59.375Z,13.59
2023-05-08T01:59:02.816Z,13.76
2023-05-08T02:00:06.103Z,13.77
2023-05-08T02:01:16.669Z,13.64
2023-05-08T02:02:21.024Z,13.68
2023-05-08T02:03:23.511Z,13.55
2023-05-08T02:04:26.428Z,13.60
2023-05-08T02:05:29.082Z,13.56
2023-05-08T02:06:32.437Z,13.55
2023-05-08T02:07:39.049Z,13.51
2023-05-08T02:08:42.112Z,13.52
2023-05-08T02:09:47.453Z,13.40
2023-05-08T02:10:51.646Z,13.63
2023-05-08T02:11:54.809Z,13.53
2023-05-08T02:12:57.613Z,13.48
2023-05-08T02:14:02.006Z,13.54
2023-05-08T02:15:06.211Z,13.46
2023-05-08T02:16:09.742Z,13.38
2023-05-08T02:17:13.095Z,13.41
2023-05-08T02:18:16.146Z,13.40
2023-05-08T02:19:19.048Z,13.44
2023-05-08T02:20:21.688Z,13.39
2023-05-08T02:21:24.052Z,13.26
2023-05-08T02:22:26.020Z,13.23
2023-05-08T02:23:28.376Z,13.17
2023-05-08T02:24:30.853Z,13.03
2023-05-08T02:25:32.915Z,13.03
2023-05-08T02:26:35.558Z,13.06
2023-05-08T02:27:37.814Z,13.12
2023-05-08T02:28:40.689Z,13.04
2023-05-08T02:29:43.273Z,13.04
2023-05-08T02:30:46.640Z,13.06
2023-05-08T02:31:49.355Z,13.07
2023-05-08T02:32:58.273Z,13.07
2023-05-08T02:34:07.766Z,13.04
2023-05-08T02:35:15.649Z,13.21
2023-05-08T02:36:20.360Z,13.12
2023-05-08T02:37:23.394Z,13.23
2023-05-08T02:38:27.406Z,13.18
2023-05-08T02:39:31.232Z,13.21
2023-05-08T02:40:33.900Z,13.26
2023-05-08T02:41:36.692Z,13.26
2023-05-08T02:42:40.004Z,13.25
2023-05-08T02:43:42.292Z,13.22
2023-05-08T02:44:44.087Z,13.23
2023-05-08T02:45:50.471Z,13.16
2023-05-08T02:47:12.964Z,13.18
2023-05-08T02:48:34.064Z,13.23
2023-05-08T02:49:38.862Z,13.26
2023-05-08T02:50:53.317Z,13.32
2023-05-08T02:52:01.126Z,13.29
2023-05-08T02:53:07.140Z,13.31
2023-05-08T02:54:12.178Z,13.21
2023-05-08T02:55:20.108Z,13.22
2023-05-08T02:56:35.042Z,13.27
2023-05-08T02:57:42.626Z,13.27
2023-05-08T02:58:54.200Z,13.31
2023-05-08T03:00:37.788Z,13.21
2023-05-08T03:01:49.501Z,13.29
2023-05-08T03:03:08.724Z,13.19
2023-05-08T03:04:12.479Z,13.15
2023-05-08T03:05:17.861Z,13.09
2023-05-08T03:06:22.098Z,13.25
2023-05-08T03:07:26.192Z,13.15
2023-05-08T03:08:31.952Z,13.04
2023-05-08T03:09:46.355Z,13.01
2023-05-08T03:10:52.970Z,12.96
2023-05-08T03:12:03.862Z,12.98
2023-05-08T03:13:09.474Z,13.02
2023-05-08T03:14:13.145Z,13.02
2023-05-08T03:15:43.788Z,13.05
2023-05-08T03:16:46.925Z,13.10
2023-05-08T03:17:49.452Z,13.07
2023-05-08T03:18:55.120Z,13.05
2023-05-08T03:19:58.911Z,13.09
2023-05-08T03:21:01.536Z,13.09
2023-05-08T03:22:04.606Z,13.10
2023-05-08T03:23:08.886Z,13.06
2023-05-08T03:24:11.265Z,13.12
2023-05-08T03:25:15.668Z,13.14
2023-05-08T03:26:38.684Z,13.14
2023-05-08T03:27:42.619Z,13.24
2023-05-08T03:28:45.883Z,13.19
2023-05-08T03:29:53.835Z,13.11
2023-05-08T03:30:57.012Z,13.07
2023-05-08T03:32:00.793Z,13.10
2023-05-08T03:33:04.993Z,13.07
2023-05-08T03:34:09.352Z,13.06
2023-05-08T03:35:11.718Z,13.05
2023-05-08T03:36:14.392Z,13.05
2023-05-08T03:37:16.444Z,13.01
2023-05-08T03:38:19.936Z,12.99
2023-05-08T03:39:22.340Z,13.02
2023-05-08T03:40:24.475Z,13.06
2023-05-08T03:41:26.914Z,13.14
2023-05-08T03:42:31.700Z,13.09
2023-05-08T03:43:34.465Z,12.98
2023-05-08T03:44:36.671Z,13.03
2023-05-08T03:45:40.167Z,12.97
2023-05-08T03:46:44.831Z,12.91
2023-05-08T03:47:47.238Z,12.98
2023-05-08T03:48:50.207Z,12.99
2023-05-08T03:49:53.420Z,13.03
2023-05-08T03:50:55.811Z,12.94
2023-05-08T03:51:58.418Z,12.95
2023-05-08T03:53:00.541Z,12.94
2023-05-08T03:54:02.949Z,13.01
2023-05-08T03:55:08.792Z,13.07
2023-05-08T03:56:11.464Z,12.98
2023-05-08T03:57:13.629Z,13.09
2023-05-08T03:58:22.262Z,13.09
2023-05-08T03:59:47.380Z,12.94
2023-05-08T04:00:54.182Z,12.84
2023-05-08T04:02:19.511Z,12.82
2023-05-08T04:03:28.178Z,12.90
2023-05-08T04:04:39.873Z,12.95
2023-05-08T04:06:01.974Z,13.00
2023-05-08T04:07:17.073Z,12.92
2023-05-08T04:08:25.547Z,12.91
2023-05-08T04:09:31.760Z,12.86
2023-05-08T04:10:44.746Z,12.81
2023-05-08T04:12:04.596Z,12.74
2023-05-08T04:13:14.359Z,12.67
2023-05-08T04:14:21.831Z,12.68
2023-05-08T04:15:28.400Z,12.75
2023-05-08T04:16:36.455Z,12.73
2023-05-08T04:17:46.793Z,12.74
2023-05-08T04:18:51.053Z,12.75
2023-05-08T04:19:59.672Z,12.71
2023-05-08T04:21:01.975Z,12.84
2023-05-08T04:22:07.767Z,12.81
2023-05-08T04:23:12.312Z,12.84
2023-05-08T04:24:16.288Z,12.88
2023-05-08T04:25:20.882Z,12.81
2023-05-08T04:26:23.449Z,12.78
2023-05-08T04:27:28.010Z,12.71
2023-05-08T04:28:30.208Z,12.72
2023-05-08T04:29:34.280Z,12.78
2023-05-08T04:30:38.304Z,12.70
2023-05-08T04:31:41.966Z,12.62
2023-05-08T04:32:46.399Z,12.77
2023-05-08T04:33:50.017Z,12.76
2023-05-08T04:34:53.573Z,12.66
2023-05-08T04:35:57.367Z,12.67
2023-05-08T04:36:59.766Z,12.54
2023-05-08T04:38:01.884Z,12.53
2023-05-08T04:39:04.457Z,12.51
2023-05-08T04:40:09.031Z,12.51
2023-05-08T04:41:10.864Z,12.61
2023-05-08T04:42:15.300Z,12.73
2023-05-08T04:43:17.611Z,12.59
2023-05-08T04:44:20.993Z,12.56
2023-05-08T04:45:24.247Z,12.52
2023-05-08T04:46:30.376Z,12.46
2023-05-08T04:47:33.205Z,12.45
2023-05-08T04:48:36.520Z,12.41
2023-05-08T04:49:38.823Z,12.31
2023-05-08T04:50:41.022Z,12.41
2023-05-08T04:51:43.292Z,12.49
2023-05-08T04:52:46.816Z,12.58
2023-05-08T04:53:49.227Z,12.41
2023-05-08T04:54:51.292Z,12.30
2023-05-08T04:55:54.094Z,12.38
2023-05-08T04:56:56.312Z,12.41
2023-05-08T04:58:00.476Z,12.46
2023-05-08T04:59:03.234Z,12.42
2023-05-08T05:00:07.628Z,12.38
2023-05-08T05:01:13.750Z,12.38
2023-05-08T05:02:16.707Z,12.51
2023-05-08T05:03:18.570Z,12.70
2023-05-08T05:04:22.217Z,12.71
2023-05-08T05:05:26.600Z,12.65
2023-05-08T05:06:28.734Z,12.48
2023-05-08T05:07:32.395Z,12.44
2023-05-08T05:08:34.879Z,12.36
2023-05-08T05:09:37.269Z,12.47
2023-05-08T05:10:40.380Z,12.42
2023-05-08T05:11:43.050Z,12.45
2023-05-08T05:12:45.339Z,12.57
2023-05-08T05:13:47.263Z,12.46
2023-05-08T05:14:49.365Z,12.44
2023-05-08T05:15:54.694Z,12.59
2023-05-08T05:16:58.126Z,12.68
2023-05-08T05:18:00.734Z,12.65
2023-05-08T05:19:03.192Z,12.61
2023-05-08T05:20:07.952Z,12.53
2023-05-08T05:21:11.809Z,12.42
2023-05-08T05:22:16.807Z,12.56
2023-05-08T05:23:19.345Z,12.50
2023-05-08T05:24:21.890Z,12.66
2023-05-08T05:25:23.780Z,12.64
2023-05-08T05:26:25.690Z,12.47
2023-05-08T05:27:28.878Z,12.54
2023-05-08T05:28:31.159Z,12.50
2023-05-08T05:29:33.616Z,12.46
2023-05-08T05:30:35.844Z,12.44
2023-05-08T05:31:39.641Z,12.70
2023-05-08T05:32:43.239Z,12.60
2023-05-08T05:33:45.853Z,12.56
2023-05-08T05:34:48.427Z,12.55
2023-05-08T05:35:50.236Z,12.64
2023-05-08T05:36:53.342Z,12.57
2023-05-08T05:37:55.496Z,12.70
2023-05-08T05:38:57.554Z,12.74
2023-05-08T05:39:59.415Z,12.71
2023-05-08T05:41:01.580Z,12.81
2023-05-08T05:42:04.170Z,12.61
2023-05-08T05:43:06.597Z,12.54
2023-05-08T05:44:08.613Z,12.61
2023-05-08T05:45:10.649Z,12.61
2023-05-08T05:46:13.497Z,12.50
2023-05-08T05:47:16.404Z,12.59
2023-05-08T05:48:18.682Z,12.49
2023-05-08T05:49:21.196Z,12.67
2023-05-08T05:50:23.953Z,12.53
2023-05-08T05:51:27.711Z,12.59
2023-05-08T05:52:30.074Z,12.49
2023-05-08T05:53:32.122Z,12.37
2023-05-08T05:54:34.119Z,12.47
2023-05-08T05:55:36.518Z,12.55
2023-05-08T05:56:41.281Z,12.59
2023-05-08T05:57:43.529Z,12.57
2023-05-08T05:58:46.698Z,12.49
2023-05-08T05:59:49.040Z,12.45
2023-05-08T06:00:52.375Z,12.60
2023-05-08T06:01:55.134Z,12.51
2023-05-08T06:02:57.864Z,12.58
2023-05-08T06:04:00.017Z,12.62
2023-05-08T06:05:01.817Z,12.46
2023-05-08T06:06:05.436Z,12.42
2023-05-08T06:07:07.179Z,12.56
2023-05-08T06:08:10.808Z,12.56
2023-05-08T06:09:12.598Z,12.57
2023-05-08T06:10:14.961Z,12.56
2023-05-08T06:11:17.915Z,12.56
2023-05-08T06:12:20.985Z,12.51
2023-05-08T06:13:22.867Z,12.52
2023-05-08T06:14:26.161Z,12.61
2023-05-08T06:15:28.275Z,12.39
2023-05-08T06:16:30.782Z,12.38
2023-05-08T06:17:32.932Z,12.28
2023-05-08T06:18:35.318Z,12.36
2023-05-08T06:19:37.036Z,12.50
2023-05-08T06:20:39.224Z,12.49
2023-05-08T06:21:41.983Z,12.37
2023-05-08T06:22:43.684Z,12.31
2023-05-08T06:23:47.135Z,12.48
2023-05-08T06:24:50.065Z,12.42
2023-05-08T06:25:52.327Z,12.48
2023-05-08T06:26:54.403Z,12.58
2023-05-08T06:27:59.339Z,12.54
2023-05-08T06:29:01.881Z,12.45
2023-05-08T06:30:04.839Z,12.35
2023-05-08T06:31:06.639Z,12.35
2023-05-08T06:32:09.224Z,12.36
2023-05-08T06:33:11.675Z,12.44
2023-05-08T06:34:14.266Z,12.58
2023-05-08T06:35:18.704Z,12.38
2023-05-08T06:36:20.574Z,12.28
2023-05-08T06:37:22.917Z,12.42
2023-05-08T06:38:25.043Z,12.38
2023-05-08T06:39:27.426Z,12.73
2023-05-08T06:40:29.992Z,12.81
2023-05-08T06:41:31.996Z,12.76
2023-05-08T06:42:35.131Z,12.67
2023-05-08T06:43:37.624Z,12.40
2023-05-08T06:44:40.952Z,12.35
2023-05-08T06:45:46.110Z,12.46
2023-05-08T06:46:48.405Z,12.47
2023-05-08T06:47:51.644Z,12.47
2023-05-08T06:48:53.768Z,12.53
2023-05-08T06:49:56.475Z,12.46
2023-05-08T06:50:59.125Z,12.43
2023-05-08T06:52:01.617Z,12.20
2023-05-08T06:53:04.529Z,12.17
2023-05-08T06:54:09.101Z,12.18
2023-05-08T06:55:10.934Z,12.35
2023-05-08T06:56:13.079Z,12.48
2023-05-08T06:57:16.275Z,12.32
2023-05-08T06:58:18.012Z,12.34
2023-05-08T06:59:21.309Z,12.38
2023-05-08T07:00:24.331Z,12.28
2023-05-08T07:01:27.652Z,12.35
2023-05-08T07:02:29.907Z,12.38
2023-05-08T07:03:32.025Z,12.72
2023-05-08T07:04:34.571Z,12.63
2023-05-08T07:05:36.743Z,12.52
2023-05-08T07:06:38.826Z,12.43
2023-05-08T07:07:43.098Z,12.33
2023-05-08T07:08:46.016Z,12.32
2023-05-08T07:09:48.135Z,12.42
2023-05-08T07:10:49.956Z,12.47
2023-05-08T07:11:51.699Z,12.46
2023-05-08T07:12:53.947Z,12.34
2023-05-08T07:13:56.505Z,12.16
2023-05-08T07:14:59.678Z,12.38
2023-05-08T07:16:09.063Z,12.52
2023-05-08T07:17:11.284Z,12.45
2023-05-08T07:18:13.159Z,12.56
2023-05-08T07:19:15.564Z,12.50
2023-05-08T07:20:17.764Z,12.42
2023-05-08T07:21:20.820Z,12.40
2023-05-08T07:22:23.073Z,12.26
2023-05-08T07:23:28.743Z,12.51
2023-05-08T07:24:31.069Z,12.64
2023-05-08T07:25:33.250Z,12.47
2023-05-08T07:26:35.341Z,12.50
2023-05-08T07:27:37.439Z,12.55
2023-05-08T07:28:39.533Z,12.70
2023-05-08T07:29:42.839Z,12.86
2023-05-08T07:30:44.801Z,12.71
2023-05-08T07:31:48.445Z,12.57
2023-05-08T07:32:50.649Z,12.53
2023-05-08T07:33:52.636Z,12.48
2023-05-08T07:34:54.630Z,12.24
2023-05-08T07:35:56.738Z,12.17
2023-05-08T07:37:00.902Z,12.38
2023-05-08T07:38:02.976Z,12.40
2023-05-08T07:39:05.016Z,12.37
2023-05-08T07:40:07.405Z,12.35
2023-05-08T07:41:10.262Z,12.22
2023-05-08T07:42:12.943Z,12.35
2023-05-08T07:43:15.482Z,12.17
2023-05-08T07:44:17.673Z,12.14
2023-05-08T07:45:19.397Z,12.17
2023-05-08T07:46:21.839Z,12.28
2023-05-08T07:47:23.913Z,12.43
2023-05-08T07:48:26.684Z,12.51
2023-05-08T07:49:28.894Z,12.48
2023-05-08T07:50:31.625Z,12.61
2023-05-08T07:51:33.373Z,12.44
2023-05-08T07:52:35.061Z,12.38
2023-05-08T07:53:37.149Z,12.45
2023-05-08T07:54:39.285Z,12.43
2023-05-08T07:55:41.151Z,12.58
2023-05-08T07:56:43.293Z,12.56
2023-05-08T07:57:46.266Z,12.50
2023-05-08T07:58:48.233Z,12.47
2023-05-08T07:59:50.933Z,12.55
2023-05-08T08:00:53.159Z,12.49
2023-05-08T08:01:54.963Z,12.49
2023-05-08T08:02:57.962Z,12.55
2023-05-08T08:04:00.914Z,12.70
2023-05-08T08:05:03.050Z,12.69
2023-05-08T08:06:04.911Z,13.04
2023-05-08T08:07:08.993Z,12.91
2023-05-08T08:08:11.686Z,12.90
2023-05-08T08:09:13.785Z,12.99
2023-05-08T08:10:16.343Z,12.74
2023-05-08T08:11:18.183Z,12.67
2023-05-08T08:12:20.933Z,12.74
2023-05-08T08:13:22.815Z,12.63
2023-05-08T08:14:25.081Z,12.57
2023-05-08T08:15:28.633Z,12.69
2023-05-08T08:16:32.974Z,12.84
2023-05-08T08:17:35.245Z,12.81
2023-05-08T08:18:37.479Z,13.04
2023-05-08T08:19:39.383Z,13.00
2023-05-08T08:20:41.525Z,13.20
2023-05-08T08:21:44.601Z,13.29
2023-05-08T08:22:47.191Z,13.30
2023-05-08T08:23:49.034Z,13.42
2023-05-08T08:24:52.472Z,13.37
2023-05-08T08:25:57.099Z,13.24
2023-05-08T08:26:59.029Z,13.38
2023-05-08T08:28:01.074Z,13.55
2023-05-08T08:29:03.727Z,13.43
2023-05-08T08:30:16.951Z,13.48
2023-05-08T08:31:20.339Z,13.60
2023-05-08T08:32:22.237Z,13.77
2023-05-08T08:33:24.099Z,13.98
2023-05-08T08:34:26.170Z,14.05
2023-05-08T08:35:30.802Z,13.91
2023-05-08T08:36:32.833Z,14.11
2023-05-08T08:37:34.587Z,13.95
2023-05-08T08:38:36.898Z,14.03
2023-05-08T08:39:38.762Z,13.83
2023-05-08T08:40:42.488Z,13.79
2023-05-08T08:41:46.909Z,13.84
2023-05-08T08:42:49.048Z,13.74
2023-05-08T08:43:51.975Z,13.58
2023-05-08T08:44:54.220Z,13.57
2023-05-08T08:45:57.326Z,13.36
2023-05-08T08:47:00.908Z,13.42
2023-05-08T08:48:03.536Z,13.81
2023-05-08T08:49:07.031Z,13.65
2023-05-08T08:50:12.721Z,13.60
2023-05-08T08:51:25.157Z,13.78
2023-05-08T08:52:32.125Z,13.72
2023-05-08T08:53:39.032Z,13.60
2023-05-08T08:54:42.181Z,13.53
2023-05-08T08:55:46.751Z,13.83
2023-05-08T08:56:50.582Z,13.85
2023-05-08T08:58:03.834Z,13.86
2023-05-08T08:59:06.652Z,13.93
2023-05-08T09:00:09.732Z,13.91
2023-05-08T09:01:15.972Z,14.10
2023-05-08T09:02:19.925Z,14.23
2023-05-08T09:03:22.487Z,14.05
2023-05-08T09:04:29.959Z,14.17
2023-05-08T09:05:33.101Z,14.04
2023-05-08T09:06:37.075Z,14.13
2023-05-08T09:07:39.219Z,14.09
2023-05-08T09:08:43.282Z,14.11
2023-05-08T09:09:46.156Z,14.04
2023-05-08T09:10:48.532Z,13.89
2023-05-08T09:11:50.555Z,13.96
2023-05-08T09:12:53.122Z,14.12
2023-05-08T09:13:55.781Z,14.11
2023-05-08T09:14:57.877Z,14.26
2023-05-08T09:16:00.613Z,14.23
2023-05-08T09:17:02.980Z,14.23
2023-05-08T09:18:05.430Z,14.22
2023-05-08T09:19:07.713Z,14.24
2023-05-08T09:20:10.489Z,14.42
2023-05-08T09:21:12.709Z,14.35
2023-05-08T09:22:14.798Z,14.20
2023-05-08T09:23:18.404Z,14.49
2023-05-08T09:24:21.166Z,14.69
2023-05-08T09:25:23.673Z,14.48
2023-05-08T09:26:28.753Z,14.50
2023-05-08T09:27:33.343Z,14.73
2023-05-08T09:28:35.844Z,14.36
2023-05-08T09:29:39.014Z,14.50
2023-05-08T09:30:54.229Z,14.57
2023-05-08T09:31:57.059Z,14.68
2023-05-08T09:33:02.279Z,14.64
2023-05-08T09:34:04.536Z,14.66
2023-05-08T09:35:07.775Z,14.74
2023-05-08T09:36:25.047Z,14.80
2023-05-08T09:37:27.972Z,14.90
2023-05-08T09:38:36.026Z,14.97
2023-05-08T09:39:41.804Z,14.80
2023-05-08T09:40:43.961Z,14.93
2023-05-08T09:42:06.721Z,14.97
2023-05-08T09:43:14.932Z,14.83
2023-05-08T09:44:17.588Z,14.74
2023-05-08T09:45:31.199Z,15.10
2023-05-08T09:46:34.681Z,14.95
2023-05-08T09:47:39.888Z,15.05
2023-05-08T09:48:42.169Z,15.04
2023-05-08T09:50:10.599Z,15.00
2023-05-08T09:51:12.936Z,15.13
2023-05-08T09:52:16.569Z,15.04
2023-05-08T09:53:18.862Z,15.13
2023-05-08T09:54:21.872Z,14.96
2023-05-08T09:55:24.028Z,15.29
2023-05-08T09:56:40.128Z,14.99
2023-05-08T09:57:53.938Z,15.03
2023-05-08T09:58:55.967Z,15.05
2023-05-08T10:00:28.127Z,15.22
2023-05-08T10:01:31.177Z,15.27
2023-05-08T10:02:35.174Z,15.37
2023-05-08T10:03:49.531Z,14.88
2023-05-08T10:04:51.294Z,14.96
2023-05-08T10:05:52.911Z,15.04
2023-05-08T10:06:58.660Z,15.52
2023-05-08T10:08:20.401Z,15.45
2023-05-08T10:09:22.018Z,15.56
2023-05-08T10:10:28.690Z,15.70
2023-05-08T10:11:30.430Z,16.05
2023-05-08T10:12:33.118Z,16.05
2023-05-08T10:13:34.686Z,15.85
2023-05-08T10:14:36.271Z,15.86
2023-05-08T10:15:38.854Z,15.74
2023-05-08T10:16:44.862Z,16.12
2023-05-08T10:18:05.035Z,15.94
2023-05-08T10:19:12.704Z,16.09
2023-05-08T10:20:15.748Z,16.04
2023-05-08T10:21:17.859Z,16.33
2023-05-08T10:22:20.890Z,16.29
2023-05-08T10:23:22.681Z,16.18
2023-05-08T10:24:29.365Z,16.48
2023-05-08T10:25:33.697Z,16.57
2023-05-08T10:26:38.105Z,16.76
2023-05-08T10:27:44.295Z,16.57
2023-05-08T10:28:54.967Z,16.77
2023-05-08T10:30:01.274Z,16.68
2023-05-08T10:31:05.502Z,16.64
2023-05-08T10:32:09.794Z,16.58
2023-05-08T10:33:15.356Z,16.94
2023-05-08T10:34:19.658Z,16.75
2023-05-08T10:35:22.199Z,16.98
2023-05-08T10:36:23.969Z,16.74
2023-05-08T10:37:25.821Z,16.61
2023-05-08T10:38:27.909Z,16.93
2023-05-08T10:39:30.723Z,16.80
2023-05-08T10:40:32.356Z,16.88
2023-05-08T10:41:34.230Z,16.92
2023-05-08T10:42:36.409Z,17.10
2023-05-08T10:43:42.221Z,17.08
2023-05-08T10:44:44.241Z,17.05
2023-05-08T10:45:46.375Z,17.26
2023-05-08T10:47:09.885Z,16.93
2023-05-08T10:48:30.305Z,17.16
2023-05-08T10:49:38.694Z,17.67
2023-05-08T10:51:09.548Z,17.91
2023-05-08T10:52:16.973Z,17.92
2023-05-08T10:53:40.911Z,17.71
2023-05-08T10:54:52.050Z,17.96
2023-05-08T10:55:55.459Z,18.21
2023-05-08T10:57:09.033Z,18.36
2023-05-08T10:58:30.610Z,18.89
2023-05-08T10:59:35.828Z,19.06
2023-05-08T11:01:09.417Z,18.99
2023-05-08T11:02:11.200Z,19.43
2023-05-08T11:03:23.581Z,19.60
2023-05-08T11:04:31.992Z,19.44
2023-05-08T11:05:45.543Z,19.26
2023-05-08T11:06:49.304Z,19.36
2023-05-08T11:07:58.388Z,19.75
2023-05-08T11:09:00.786Z,19.29
2023-05-08T11:10:07.940Z,18.87
2023-05-08T11:11:16.266Z,18.81
2023-05-08T11:12:20.846Z,18.86
2023-05-08T11:13:36.606Z,19.07
2023-05-08T11:14:39.884Z,18.57
2023-05-08T11:15:42.316Z,18.50
2023-05-08T11:17:02.055Z,18.78
2023-05-08T11:18:04.948Z,18.65
2023-05-08T11:19:17.184Z,19.03
2023-05-08T11:20:23.590Z,19.21
2023-05-08T11:21:25.330Z,19.19
2023-05-08T11:22:28.822Z,19.07
2023-05-08T11:23:32.004Z,19.09
2023-05-08T11:24:37.380Z,18.88
2023-05-08T11:25:43.806Z,18.90
2023-05-08T11:26:48.963Z,18.67
2023-05-08T11:27:50.656Z,18.91
2023-05-08T11:28:57.251Z,19.26
2023-05-08T11:30:20.861Z,19.38
2023-05-08T11:31:22.988Z,19.24
2023-05-08T11:33:03.150Z,19.26
2023-05-08T11:34:04.815Z,19.09
2023-05-08T11:35:11.203Z,19.13
2023-05-08T11:36:15.677Z,19.20
2023-05-08T11:37:17.167Z,19.27
2023-05-08T11:38:26.132Z,19.01
2023-05-08T11:39:27.777Z,19.32
2023-05-08T11:41:00.047Z,19.20
2023-05-08T11:42:29.450Z,19.32
2023-05-08T11:43:34.034Z,19.59
2023-05-08T11:44:36.335Z,19.46
2023-05-08T11:45:40.466Z,19.62
2023-05-08T11:46:43.343Z,19.42
2023-05-08T11:47:45.991Z,19.41
2023-05-08T11:48:47.854Z,19.35
2023-05-08T11:49:49.454Z,19.33
2023-05-08T11:50:51.413Z,19.51
2023-05-08T11:51:58.147Z,19.39
2023-05-08T11:52:59.800Z,19.40
2023-05-08T11:54:02.343Z,19.45
2023-05-08T11:55:11.927Z,19.24
2023-05-08T11:56:13.682Z,19.31
2023-05-08T11:57:17.460Z,18.95
2023-05-08T11:58:19.202Z,18.96
2023-05-08T11:59:21.289Z,19.10
2023-05-08T12:00:23.163Z,19.21
2023-05-08T12:01:24.761Z,19.19
2023-05-08T12:02:40.701Z,19.52
2023-05-08T12:03:42.485Z,19.14
2023-05-08T12:04:45.756Z,19.06
2023-05-08T12:05:48.674Z,19.28
2023-05-08T12:06:51.544Z,19.53
2023-05-08T12:07:53.166Z,19.02
2023-05-08T12:08:54.714Z,18.81
2023-05-08T12:09:56.281Z,19.03
2023-05-08T12:10:58.180Z,19.08
2023-05-08T12:11:59.948Z,18.88
2023-05-08T12:13:01.615Z,19.02
2023-05-08T12:14:03.354Z,19.09
2023-05-08T12:15:23.164Z,18.62
2023-05-08T12:16:25.938Z,18.63
2023-05-08T12:17:27.619Z,18.65
2023-05-08T12:18:30.810Z,18.83
2023-05-08T12:19:32.440Z,18.72
2023-05-08T12:20:34.077Z,18.78
2023-05-08T12:21:35.933Z,18.64
2023-05-08T12:22:39.087Z,18.53
2023-05-08T12:23:40.662Z,18.55
2023-05-08T12:24:42.235Z,18.33
2023-05-08T12:25:43.789Z,18.30
2023-05-08T12:26:46.378Z,18.42
2023-05-08T12:27:48.091Z,18.58
2023-05-08T12:28:55.748Z,18.53
2023-05-08T12:29:57.985Z,18.38
2023-05-08T12:30:59.844Z,18.69
2023-05-08T12:32:01.453Z,18.21
2023-05-08T12:33:04.677Z,18.44
2023-05-08T12:34:06.626Z,18.52
2023-05-08T12:35:09.407Z,18.70
2023-05-08T12:36:11.062Z,18.73
2023-05-08T12:37:23.473Z,18.31
2023-05-08T12:38:26.617Z,18.52
2023-05-08T12:39:28.185Z,18.39
2023-05-08T12:40:32.183Z,18.53
2023-05-08T12:41:33.749Z,18.73
2023-05-08T12:42:51.194Z,18.78
2023-05-08T12:43:52.775Z,18.94
2023-05-08T12:44:54.376Z,18.96
2023-05-08T12:45:56.076Z,18.61
2023-05-08T12:46:58.170Z,18.70
2023-05-08T12:48:01.770Z,18.80
2023-05-08T12:49:07.196Z,18.75
2023-05-08T12:50:10.199Z,18.35
2023-05-08T12:51:11.920Z,18.49
2023-05-08T12:52:13.968Z,18.70
2023-05-08T12:53:20.328Z,18.71
2023-05-08T12:54:32.171Z,18.23
2023-05-08T12:55:35.686Z,18.33
2023-05-08T12:56:43.479Z,18.63
2023-05-08T12:57:45.073Z,18.45
2023-05-08T12:58:46.645Z,18.37
2023-05-08T12:59:48.993Z,18.50
2023-05-08T13:00:54.069Z,18.25
2023-05-08T13:01:55.784Z,18.32
2023-05-08T13:02:57.506Z,17.92
2023-05-08T13:04:02.656Z,18.10
2023-05-08T13:05:05.823Z,18.04
2023-05-08T13:06:07.611Z,18.15
2023-05-08T13:07:09.319Z,18.23
2023-05-08T13:08:11.182Z,17.81
2023-05-08T13:09:18.274Z,17.84
2023-05-08T13:10:23.018Z,17.83
2023-05-08T13:11:33.165Z,17.89
2023-05-08T13:12:34.853Z,17.86
2023-05-08T13:13:37.066Z,18.07
2023-05-08T13:14:39.372Z,18.03
2023-05-08T13:15:40.857Z,18.04
2023-05-08T13:16:46.352Z,18.05
2023-05-08T13:17:47.961Z,18.02
2023-05-08T13:18:49.567Z,17.77
2023-05-08T13:19:51.154Z,18.06
2023-05-08T13:20:52.798Z,18.09
2023-05-08T13:21:54.429Z,18.06
2023-05-08T13:22:56.032Z,17.91
2023-05-08T13:23:57.699Z,17.75
2023-05-08T13:24:59.327Z,18.02
2023-05-08T13:26:00.990Z,18.02
2023-05-08T13:27:03.108Z,18.18
2023-05-08T13:28:05.857Z,18.00
2023-05-08T13:29:07.440Z,17.95
2023-05-08T13:30:09.500Z,18.25
2023-05-08T13:31:11.157Z,18.30
2023-05-08T13:32:12.763Z,18.28
2023-05-08T13:33:14.412Z,18.28
2023-05-08T13:34:16.042Z,18.47
2023-05-08T13:35:18.678Z,18.41
2023-05-08T13:36:20.939Z,18.14
2023-05-08T13:37:22.610Z,18.02
2023-05-08T13:38:24.268Z,18.17
2023-05-08T13:39:25.851Z,18.39
2023-05-08T13:40:27.832Z,18.08
2023-05-08T13:41:29.410Z,18.20
2023-05-08T13:42:30.996Z,18.39
2023-05-08T13:43:32.549Z,18.27
2023-05-08T13:44:34.112Z,18.09
2023-05-08T13:45:35.761Z,18.13
2023-05-08T13:46:37.446Z,18.13
2023-05-08T13:47:39.163Z,18.10
2023-05-08T13:48:40.784Z,18.22
2023-05-08T13:49:42.384Z,17.86
2023-05-08T13:50:43.981Z,17.44
2023-05-08T13:51:47.187Z,17.67
2023-05-08T13:52:53.221Z,17.47
2023-05-08T13:53:56.397Z,17.34
2023-05-08T13:54:58.377Z,17.65
2023-05-08T13:56:01.005Z,17.54
2023-05-08T13:57:02.751Z,17.59